createdAt,value
2018-07-11T00:01:18.556Z,16.70
2018-07-11T00:03:50.341Z,14.80
2018-07-11T00:06:20.204Z,14.93
2018-07-11T00:08:48.787Z,14.53
2018-07-11T00:11:17.327Z,18.83
2018-07-11T00:13:46.953Z,16.67
2018-07-11T00:16:16.351Z,15.10
2018-07-11T00:18:44.760Z,13.07
2018-07-11T00:21:13.264Z,16.77
2018-07-11T00:23:41.699Z,17.20
2018-07-11T00:26:11.990Z,10.60
2018-07-11T00:28:40.783Z,13.53
2018-07-11T00:31:09.177Z,17.63
2018-07-11T00:33:37.760Z,17.80
2018-07-11T00:36:06.175Z,14.90
2018-07-11T00:38:34.601Z,15.73
2018-07-11T00:41:03.912Z,16.67
2018-07-11T00:43:34.363Z,14.77
2018-07-11T00:46:04.520Z,15.33
2018-07-11T00:48:33.419Z,13.47
2018-07-11T00:51:02.612Z,15.07
2018-07-11T00:53:32.254Z,13.97
2018-07-11T00:56:01.905Z,13.33
2018-07-11T00:58:32.736Z,12.77
2018-07-11T01:01:15.948Z,16.03
2018-07-11T01:03:51.064Z,16.13
2018-07-11T01:06:20.258Z,15.70
2018-07-11T01:08:54.322Z,13.93
2018-07-11T01:11:23.965Z,15.60
2018-07-11T01:13:53.151Z,16.10
2018-07-11T01:16:23.113Z,13.23
2018-07-11T01:18:59.509Z,13.73
2018-07-11T01:21:28.431Z,17.73
2018-07-11T01:23:57.146Z,21.13
2018-07-11T01:26:28.219Z,15.00
2018-07-11T01:28:56.958Z,17.93
2018-07-11T01:31:25.691Z,16.97
2018-07-11T01:33:54.712Z,15.27
2018-07-11T01:36:23.606Z,18.83
2018-07-11T01:38:52.192Z,17.00
2018-07-11T01:41:20.648Z,13.97
2018-07-11T01:43:49.563Z,13.07
2018-07-11T01:46:18.343Z,16.93
2018-07-11T01:48:47.356Z,13.23
2018-07-11T01:51:16.099Z,15.90
2018-07-11T01:53:44.440Z,15.87
2018-07-11T01:56:13.056Z,13.70
2018-07-11T01:58:46.763Z,16.20
2018-07-11T02:01:15.963Z,13.43
2018-07-11T02:03:44.544Z,11.73
2018-07-11T02:06:12.754Z,13.17
2018-07-11T02:08:41.230Z,11.80
2018-07-11T02:11:10.845Z,14.43
2018-07-11T02:13:39.297Z,15.03
2018-07-11T02:16:07.936Z,13.90
2018-07-11T02:18:36.417Z,14.27
2018-07-11T02:21:05.794Z,12.27
2018-07-11T02:23:36.660Z,17.33
2018-07-11T02:26:05.136Z,14.57
2018-07-11T02:28:33.733Z,14.47
2018-07-11T02:31:02.259Z,21.13
2018-07-11T02:33:31.146Z,22.57
2018-07-11T02:35:59.605Z,15.93
2018-07-11T02:38:28.224Z,16.00
2018-07-11T02:40:56.741Z,14.97
2018-07-11T02:43:25.265Z,19.03
2018-07-11T02:45:53.705Z,13.10
2018-07-11T02:48:22.145Z,20.20
2018-07-11T02:50:50.675Z,12.70
2018-07-11T02:53:20.915Z,15.97
2018-07-11T02:55:50.568Z,15.73
2018-07-11T02:58:18.694Z,15.17
2018-07-11T03:00:47.623Z,14.33
2018-07-11T03:03:16.088Z,16.30
2018-07-11T03:05:44.703Z,17.80
2018-07-11T03:08:13.748Z,17.00
2018-07-11T03:10:42.301Z,17.43
2018-07-11T03:13:10.846Z,20.77
2018-07-11T03:15:39.199Z,22.17
2018-07-11T03:18:07.724Z,13.17
2018-07-11T03:20:36.320Z,16.90
2018-07-11T03:23:04.793Z,17.70
2018-07-11T03:25:33.408Z,18.77
2018-07-11T03:28:01.784Z,20.30
2018-07-11T03:30:30.534Z,21.27
2018-07-11T03:32:59.019Z,16.47
2018-07-11T03:35:27.157Z,14.33
2018-07-11T03:37:55.617Z,16.70
2018-07-11T03:40:24.032Z,20.70
2018-07-11T03:42:52.441Z,13.77
2018-07-11T03:45:21.024Z,18.07
2018-07-11T03:47:49.689Z,16.87
2018-07-11T03:50:18.139Z,17.70
2018-07-11T03:52:46.585Z,19.17
2018-07-11T03:55:15.037Z,18.47
2018-07-11T03:57:43.690Z,14.53
2018-07-11T04:00:12.697Z,12.27
2018-07-11T04:02:41.211Z,18.60
2018-07-11T04:05:10.013Z,16.60
2018-07-11T04:07:38.393Z,15.30
2018-07-11T04:10:06.852Z,15.90
2018-07-11T04:12:35.524Z,17.60
2018-07-11T04:15:03.928Z,18.17
2018-07-11T04:17:38.971Z,18.43
2018-07-11T04:20:07.856Z,19.43
2018-07-11T04:22:36.516Z,15.70
2018-07-11T04:25:04.983Z,18.23
2018-07-11T04:27:33.353Z,17.70
2018-07-11T04:30:01.708Z,17.37
2018-07-11T04:32:30.092Z,18.10
2018-07-11T04:34:58.434Z,13.70
2018-07-11T04:37:26.848Z,15.47
2018-07-11T04:39:55.724Z,15.07
2018-07-11T04:42:24.183Z,13.70
2018-07-11T04:44:52.808Z,14.20
2018-07-11T04:47:21.247Z,14.33
2018-07-11T04:49:49.609Z,12.63
2018-07-11T04:52:18.161Z,14.90
2018-07-11T04:54:46.533Z,16.00
2018-07-11T04:57:14.858Z,14.90
2018-07-11T04:59:43.163Z,18.03
2018-07-11T05:02:11.552Z,13.43
2018-07-11T05:04:40.335Z,16.57
2018-07-11T05:07:08.779Z,10.13
2018-07-11T05:09:37.292Z,17.77
2018-07-11T05:12:06.048Z,12.27
2018-07-11T05:14:34.456Z,10.27
2018-07-11T05:17:02.999Z,12.43
2018-07-11T05:19:31.428Z,15.50
2018-07-11T05:21:59.802Z,13.17
2018-07-11T05:24:28.407Z,13.57
2018-07-11T05:26:57.039Z,14.17
2018-07-11T05:29:25.627Z,15.63
2018-07-11T05:31:54.516Z,11.13
2018-07-11T05:34:23.120Z,16.93
2018-07-11T05:36:52.003Z,13.07
2018-07-11T05:39:20.478Z,14.37
2018-07-11T05:41:48.629Z,12.03
2018-07-11T05:44:17.032Z,13.33
2018-07-11T05:46:45.631Z,11.77
2018-07-11T05:49:14.346Z,14.93
2018-07-11T05:51:42.640Z,12.07
2018-07-11T05:54:11.089Z,10.23
2018-07-11T05:56:39.473Z,13.60
2018-07-11T05:59:08.312Z,13.23
2018-07-11T06:01:36.451Z,11.60
2018-07-11T06:04:06.572Z,11.00
2018-07-11T06:06:37.551Z,11.80
2018-07-11T06:09:11.213Z,13.30
2018-07-11T06:11:44.151Z,15.00
2018-07-11T06:17:25.072Z,14.60
2018-07-11T06:20:16.261Z,12.23
2018-07-11T06:22:48.703Z,9.37
2018-07-11T06:25:17.133Z,11.17
2018-07-11T06:27:45.712Z,14.50
2018-07-11T06:30:14.588Z,8.17
2018-07-11T06:32:43.112Z,14.13
2018-07-11T06:35:11.704Z,14.37
2018-07-11T06:37:40.294Z,13.87
2018-07-11T06:40:08.687Z,10.23
2018-07-11T06:42:38.774Z,9.20
2018-07-11T06:45:07.659Z,11.03
2018-07-11T06:47:36.275Z,8.00
2018-07-11T06:50:04.836Z,10.87
2018-07-11T06:52:33.917Z,12.43
2018-07-11T06:55:02.720Z,11.33
2018-07-11T06:57:31.238Z,13.60
2018-07-11T07:00:00.979Z,9.77
2018-07-11T07:02:40.176Z,13.43
2018-07-11T07:05:15.025Z,10.53
2018-07-11T07:07:53.427Z,10.73
2018-07-11T07:10:38.537Z,6.13
2018-07-11T07:13:14.840Z,11.93
2018-07-11T07:15:54.466Z,8.50
2018-07-11T07:18:27.388Z,11.40
2018-07-11T07:21:06.859Z,17.33
2018-07-11T07:23:35.671Z,8.87
2018-07-11T07:26:04.329Z,10.67
2018-07-11T07:28:32.712Z,13.23
2018-07-11T07:31:01.153Z,10.17
2018-07-11T07:33:30.051Z,10.00
2018-07-11T07:35:58.392Z,9.83
2018-07-11T07:38:27.061Z,12.50
2018-07-11T07:40:56.048Z,8.30
2018-07-11T07:43:26.321Z,8.20
2018-07-11T07:45:56.042Z,9.67
2018-07-11T07:48:24.813Z,12.83
2018-07-11T07:50:53.613Z,11.93
2018-07-11T07:53:22.079Z,7.53
2018-07-11T07:55:51.077Z,8.23
2018-07-11T07:58:30.918Z,10.33
2018-07-11T08:01:05.888Z,6.93
2018-07-11T08:03:35.372Z,9.07
2018-07-11T08:06:04.112Z,9.63
2018-07-11T08:08:32.597Z,5.93
2018-07-11T08:11:00.864Z,7.57
2018-07-11T08:13:29.289Z,6.67
2018-07-11T08:15:57.567Z,6.77
2018-07-11T08:18:25.702Z,8.20
2018-07-11T08:20:54.520Z,9.33
2018-07-11T08:23:45.810Z,5.63
2018-07-11T08:26:25.927Z,7.23
2018-07-11T08:29:19.271Z,5.33
2018-07-11T08:31:59.204Z,6.80
2018-07-11T08:35:38.649Z,5.80
2018-07-11T08:38:18.505Z,9.50
2018-07-11T08:43:02.970Z,6.90
2018-07-11T08:46:07.999Z,5.40
2018-07-11T08:48:43.652Z,8.20
2018-07-11T08:53:32.204Z,8.03
2018-07-11T08:56:06.256Z,7.47
2018-07-11T08:59:48.688Z,5.90
2018-07-11T09:02:24.369Z,8.50
2018-07-11T09:06:14.788Z,9.13
2018-07-11T09:08:57.357Z,9.67
2018-07-11T09:13:55.115Z,9.13
2018-07-11T09:16:56.940Z,9.57
2018-07-11T09:19:50.387Z,5.77
2018-07-11T09:22:34.040Z,8.23
2018-07-11T09:25:02.429Z,3.93
2018-07-11T09:27:31.092Z,6.07
2018-07-11T09:29:59.659Z,5.90
2018-07-11T09:32:28.232Z,5.63
2018-07-11T09:34:56.869Z,8.13
2018-07-11T09:37:25.170Z,6.30
2018-07-11T09:39:53.607Z,6.90
2018-07-11T09:42:21.964Z,4.80
2018-07-11T09:44:50.508Z,6.57
2018-07-11T09:47:24.335Z,3.53
2018-07-11T09:49:52.595Z,5.73
2018-07-11T09:52:21.426Z,5.03
2018-07-11T09:54:49.756Z,5.13
2018-07-11T09:57:18.366Z,6.93
2018-07-11T09:59:46.735Z,7.53
2018-07-11T10:02:15.400Z,4.67
2018-07-11T10:04:43.884Z,5.23
2018-07-11T10:07:12.856Z,5.03
2018-07-11T10:09:41.417Z,6.57
2018-07-11T10:12:09.499Z,6.90
2018-07-11T10:14:40.908Z,6.27
2018-07-11T10:17:09.258Z,6.97
2018-07-11T10:19:37.535Z,5.17
2018-07-11T10:22:05.711Z,4.40
2018-07-11T10:24:34.052Z,5.00
2018-07-11T10:27:03.196Z,4.57
2018-07-11T10:29:31.540Z,5.10
2018-07-11T10:31:59.901Z,4.23
2018-07-11T10:34:28.403Z,6.37
2018-07-11T10:36:56.821Z,5.90
2018-07-11T10:39:25.133Z,7.93
2018-07-11T10:41:53.655Z,3.03
2018-07-11T10:44:21.977Z,6.13
2018-07-11T10:46:50.553Z,6.63
2018-07-11T10:49:18.680Z,5.93
2018-07-11T10:51:47.672Z,4.50
2018-07-11T10:54:16.129Z,6.23
2018-07-11T10:56:44.168Z,4.90
2018-07-11T10:59:13.151Z,5.37
2018-07-11T11:01:41.512Z,7.43
2018-07-11T11:04:09.536Z,7.10
2018-07-11T11:06:37.864Z,4.90
2018-07-11T11:09:06.706Z,7.00
2018-07-11T11:11:34.986Z,5.57
2018-07-11T11:14:03.018Z,7.87
2018-07-11T11:16:31.408Z,6.33
2018-07-11T11:18:59.788Z,4.97
2018-07-11T11:21:28.126Z,8.10
2018-07-11T11:23:56.194Z,5.67
2018-07-11T11:26:24.537Z,8.23
2018-07-11T11:28:53.227Z,6.73
2018-07-11T11:31:21.616Z,7.03
2018-07-11T11:33:50.094Z,6.93
2018-07-11T11:36:18.156Z,6.23
2018-07-11T11:38:46.212Z,7.23
2018-07-11T11:41:14.953Z,5.13
2018-07-11T11:43:42.991Z,7.53
2018-07-11T11:46:11.301Z,6.47
2018-07-11T11:48:39.606Z,6.50
2018-07-11T11:51:07.908Z,6.27
2018-07-11T11:53:36.224Z,5.43
2018-07-11T11:56:04.536Z,6.87
2018-07-11T11:58:32.902Z,4.97
2018-07-11T12:01:01.319Z,6.83
2018-07-11T12:03:29.676Z,7.67
2018-07-11T12:05:58.090Z,7.23
2018-07-11T12:08:26.516Z,7.23
2018-07-11T12:10:54.628Z,7.40
2018-07-11T12:13:23.072Z,8.23
2018-07-11T12:15:51.335Z,6.40
2018-07-11T12:18:19.699Z,6.03
2018-07-11T12:20:47.993Z,7.50
2018-07-11T12:23:16.019Z,7.77
2018-07-11T12:26:21.541Z,7.50
2018-07-11T12:28:50.132Z,8.37
2018-07-11T12:31:18.120Z,7.50
2018-07-11T12:33:46.376Z,9.17
2018-07-11T12:36:14.459Z,5.73
2018-07-11T12:38:43.211Z,6.27
2018-07-11T12:41:11.561Z,8.50
2018-07-11T12:43:46.405Z,8.00
2018-07-11T12:46:16.032Z,6.23
2018-07-11T12:48:49.810Z,8.20
2018-07-11T12:51:18.252Z,7.07
2018-07-11T12:53:46.524Z,6.07
2018-07-11T12:56:14.608Z,4.50
2018-07-11T12:58:42.633Z,8.10
2018-07-11T13:01:10.938Z,6.67
2018-07-11T13:03:39.253Z,7.43
2018-07-11T13:06:07.649Z,8.63
2018-07-11T13:08:35.980Z,4.27
2018-07-11T13:11:04.288Z,7.27
2018-07-11T13:13:33.236Z,4.73
2018-07-11T13:16:01.606Z,8.07
2018-07-11T13:18:29.567Z,8.93
2018-07-11T13:20:58.577Z,6.07
2018-07-11T13:23:26.853Z,5.57
2018-07-11T13:25:55.603Z,6.07
2018-07-11T13:28:23.901Z,8.47
2018-07-11T13:30:52.072Z,9.97
2018-07-11T13:33:20.342Z,7.10
2018-07-11T13:35:48.664Z,5.30
2018-07-11T13:38:17.030Z,8.47
2018-07-11T13:40:45.376Z,6.80
2018-07-11T13:43:13.779Z,7.27
2018-07-11T13:45:42.883Z,7.67
2018-07-11T13:48:11.289Z,6.63
2018-07-11T13:50:39.653Z,5.83
2018-07-11T13:53:08.148Z,7.63
2018-07-11T13:55:36.488Z,10.47
2018-07-11T13:58:04.845Z,3.57
2018-07-11T14:00:33.876Z,9.30
2018-07-11T14:03:02.880Z,4.10
2018-07-11T14:05:31.262Z,5.67
2018-07-11T14:07:59.677Z,9.73
2018-07-11T14:10:28.016Z,6.30
2018-07-11T14:12:56.786Z,9.50
2018-07-11T14:15:24.860Z,6.93
2018-07-11T14:17:53.356Z,5.77
2018-07-11T14:20:21.770Z,8.33
2018-07-11T14:22:50.069Z,7.87
2018-07-11T14:25:19.119Z,6.93
2018-07-11T14:27:48.889Z,5.93
2018-07-11T14:30:17.436Z,5.30
2018-07-11T14:32:51.571Z,7.73
2018-07-11T14:35:19.985Z,7.40
2018-07-11T14:37:49.234Z,8.33
2018-07-11T14:40:17.790Z,4.87
2018-07-11T14:42:46.392Z,6.63
2018-07-11T14:45:14.853Z,7.13
2018-07-11T14:47:48.647Z,6.40
2018-07-11T14:50:17.144Z,4.60
2018-07-11T14:52:46.248Z,8.40
2018-07-11T14:55:15.605Z,6.43
2018-07-11T14:57:43.895Z,6.07
2018-07-11T15:00:12.325Z,8.13
2018-07-11T15:02:40.741Z,9.63
2018-07-11T15:05:09.099Z,7.00
2018-07-11T15:07:37.420Z,5.87
2018-07-11T15:10:05.800Z,6.03
2018-07-11T15:12:34.136Z,7.43
2018-07-11T15:15:02.941Z,8.33
2018-07-11T15:17:32.000Z,6.10
2018-07-11T15:20:00.311Z,6.50
2018-07-11T15:22:28.680Z,5.93
2018-07-11T15:24:57.464Z,7.50
2018-07-11T15:27:26.242Z,7.10
2018-07-11T15:29:55.616Z,7.37
2018-07-11T15:32:23.981Z,6.90
2018-07-11T15:34:52.886Z,6.57
2018-07-11T15:37:21.737Z,8.93
2018-07-11T15:39:50.113Z,9.27
2018-07-11T15:42:19.259Z,6.47
2018-07-11T15:44:48.798Z,14.53
2018-07-11T15:47:29.804Z,8.23
2018-07-11T15:50:00.981Z,9.03
2018-07-11T15:53:54.167Z,7.23
2018-07-11T15:56:22.665Z,8.10
2018-07-11T15:59:00.954Z,7.13
2018-07-11T16:01:30.727Z,8.43
2018-07-11T16:04:19.826Z,7.73
2018-07-11T16:06:50.609Z,9.70
2018-07-11T16:09:19.457Z,8.57
2018-07-11T16:11:47.515Z,6.27
2018-07-11T16:14:15.833Z,10.23
2018-07-11T16:16:44.204Z,11.50
2018-07-11T16:19:12.616Z,8.30
2018-07-11T16:21:41.477Z,7.60
2018-07-11T16:24:09.848Z,10.03
2018-07-11T16:26:38.296Z,8.80
2018-07-11T16:29:06.778Z,10.67
2018-07-11T16:31:35.696Z,9.73
2018-07-11T16:34:06.812Z,14.60
2018-07-11T16:36:35.276Z,11.03
2018-07-11T16:39:03.639Z,11.47
2018-07-11T16:41:31.700Z,15.57
2018-07-11T16:44:00.001Z,14.47
2018-07-11T16:46:28.044Z,10.17
2018-07-11T16:48:56.342Z,15.90
2018-07-11T16:51:24.713Z,14.13
2018-07-11T16:53:53.340Z,12.40
2018-07-11T16:56:21.667Z,13.33
2018-07-11T16:58:52.122Z,13.37
2018-07-11T17:01:23.873Z,12.57
2018-07-11T17:03:51.896Z,14.93
2018-07-11T17:06:20.239Z,15.80
2018-07-11T17:08:49.706Z,15.03
2018-07-11T17:11:27.017Z,14.07
2018-07-11T17:14:02.737Z,13.57
2018-07-11T17:17:05.194Z,14.90
2018-07-11T17:19:38.972Z,12.27
2018-07-11T17:22:08.096Z,14.60
2018-07-11T17:24:42.248Z,10.80
2018-07-11T17:27:10.546Z,13.47
2018-07-11T17:29:40.532Z,14.63
2018-07-11T17:32:10.182Z,14.07
2018-07-11T17:34:39.918Z,12.90
2018-07-11T17:37:09.290Z,15.90
2018-07-11T17:39:42.780Z,14.50
2018-07-11T17:42:12.597Z,12.33
2018-07-11T17:44:46.983Z,14.27
2018-07-11T17:47:15.340Z,12.43
2018-07-11T17:49:53.962Z,15.30
2018-07-11T17:52:24.710Z,10.60
2018-07-11T17:55:11.858Z,13.73
2018-07-11T17:57:53.502Z,14.27
2018-07-11T18:00:33.170Z,14.07
2018-07-11T18:03:04.022Z,9.27
2018-07-11T18:05:34.064Z,13.43
2018-07-11T18:08:07.017Z,13.80
2018-07-11T18:10:48.085Z,15.33
2018-07-11T18:13:27.937Z,13.10
2018-07-11T18:16:36.594Z,11.80
2018-07-11T18:21:21.570Z,12.33
2018-07-11T18:24:10.029Z,10.13
2018-07-11T18:27:09.717Z,11.37
2018-07-11T18:29:44.916Z,13.63
2018-07-11T18:34:29.837Z,12.13
2018-07-11T18:37:10.189Z,11.40
2018-07-11T18:39:49.915Z,12.93
2018-07-11T18:42:24.759Z,12.33
2018-07-11T18:44:58.556Z,13.33
2018-07-11T18:47:33.359Z,11.30
2018-07-11T18:52:12.820Z,15.60
2018-07-11T18:54:54.092Z,16.47
2018-07-11T18:57:35.198Z,11.57
2018-07-11T19:02:19.070Z,13.43
2018-07-11T19:05:00.432Z,14.47
2018-07-11T19:07:37.328Z,14.20
2018-07-11T19:10:06.280Z,16.23
2018-07-11T19:13:45.913Z,14.67
2018-07-11T19:16:16.934Z,15.53
2018-07-11T19:19:55.367Z,15.00
2018-07-11T19:22:34.821Z,16.20
2018-07-11T19:25:14.914Z,11.30
2018-07-11T19:27:58.757Z,16.03
2018-07-11T19:30:43.005Z,10.90
2018-07-11T19:33:24.387Z,10.80
2018-07-11T19:36:13.079Z,18.50
2018-07-11T19:39:05.587Z,16.70
2018-07-11T19:41:56.156Z,13.63
2018-07-11T19:44:35.849Z,18.60
2018-07-11T19:47:13.733Z,13.93
2018-07-11T19:49:47.929Z,14.97
2018-07-11T19:53:27.684Z,13.10
2018-07-11T19:56:13.333Z,12.43
2018-07-11T19:58:42.136Z,10.93
2018-07-11T20:01:10.276Z,17.30
2018-07-11T20:03:38.795Z,16.37
2018-07-11T20:06:07.309Z,15.87
2018-07-11T20:08:36.128Z,14.53
2018-07-11T20:11:04.304Z,13.50
2018-07-11T20:13:32.899Z,14.93
2018-07-11T20:16:01.143Z,15.10
2018-07-11T20:18:29.265Z,17.00
2018-07-11T20:20:57.897Z,13.13
2018-07-11T20:23:26.924Z,18.07
2018-07-11T20:25:56.005Z,15.10
2018-07-11T20:28:24.524Z,22.43
2018-07-11T20:30:55.030Z,13.70
2018-07-11T20:33:26.167Z,14.10
2018-07-11T20:35:56.090Z,13.00
2018-07-11T20:38:25.766Z,16.03
2018-07-11T20:41:00.613Z,17.00
2018-07-11T20:43:33.064Z,19.07
2018-07-11T20:46:02.534Z,21.83
2018-07-11T20:48:35.220Z,11.53
2018-07-11T20:51:09.147Z,12.67
2018-07-11T20:53:42.730Z,11.40
2018-07-11T20:56:11.521Z,14.27
2018-07-11T20:58:51.794Z,15.23
2018-07-11T21:01:34.376Z,11.90
2018-07-11T21:04:14.352Z,13.00
2018-07-11T21:06:54.979Z,12.03
2018-07-11T21:09:49.398Z,16.07
2018-07-11T21:15:33.775Z,8.90
2018-07-11T21:18:13.320Z,16.83
2018-07-11T21:20:41.594Z,18.40
2018-07-11T21:23:10.370Z,13.13
2018-07-11T21:25:39.163Z,10.27
2018-07-11T21:28:07.624Z,17.43
2018-07-11T21:30:36.180Z,13.73
2018-07-11T21:33:04.963Z,16.93
2018-07-11T21:35:33.397Z,12.90
2018-07-11T21:38:02.341Z,13.30
2018-07-11T21:40:31.307Z,17.40
2018-07-11T21:43:00.193Z,14.73
2018-07-11T21:45:28.530Z,14.97
2018-07-11T21:47:57.235Z,14.20
2018-07-11T21:50:26.052Z,18.10
2018-07-11T21:52:54.637Z,16.53
2018-07-11T21:55:23.382Z,11.03
2018-07-11T21:57:51.896Z,13.50
2018-07-11T22:00:31.524Z,13.20
2018-07-11T22:03:02.483Z,12.83
2018-07-11T22:05:32.592Z,17.60
2018-07-11T22:08:02.134Z,14.63
2018-07-11T22:10:33.022Z,17.43
2018-07-11T22:13:03.822Z,11.73
2018-07-11T22:15:37.538Z,12.43
2018-07-11T22:18:28.876Z,18.37
2018-07-11T22:20:57.956Z,13.30
2018-07-11T22:23:25.450Z,14.70
2018-07-11T22:25:53.029Z,16.30
2018-07-11T22:28:20.602Z,12.00
2018-07-11T22:30:47.973Z,13.47
2018-07-11T22:33:15.337Z,11.27
2018-07-11T22:35:42.712Z,13.60
2018-07-11T22:38:10.793Z,13.73
2018-07-11T22:40:38.512Z,14.37
2018-07-11T22:43:06.112Z,12.70
2018-07-11T22:45:33.609Z,12.83
2018-07-11T22:48:01.201Z,14.17
2018-07-11T22:50:29.162Z,12.17
2018-07-11T22:52:56.882Z,12.40
2018-07-11T22:55:24.298Z,12.67
2018-07-11T22:57:52.194Z,12.23
2018-07-11T23:00:19.548Z,16.10
2018-07-11T23:02:47.086Z,11.80
2018-07-11T23:05:14.403Z,15.70
2018-07-11T23:07:42.730Z,11.63
2018-07-11T23:10:10.046Z,12.30
2018-07-11T23:12:37.559Z,14.10
2018-07-11T23:15:04.958Z,14.30
2018-07-11T23:17:32.244Z,16.93
2018-07-11T23:19:59.656Z,12.40
2018-07-11T23:22:28.015Z,13.00
2018-07-11T23:24:55.488Z,16.37
2018-07-11T23:27:23.335Z,13.07
2018-07-11T23:29:50.611Z,10.83
2018-07-11T23:32:18.222Z,15.17
2018-07-11T23:34:45.463Z,15.57
2018-07-11T23:37:13.329Z,15.87
2018-07-11T23:39:40.801Z,15.03
2018-07-11T23:42:08.406Z,12.37
2018-07-11T23:44:35.756Z,12.60
2018-07-11T23:47:03.086Z,13.53
2018-07-11T23:49:30.584Z,15.73
2018-07-11T23:51:57.971Z,13.80
2018-07-11T23:54:25.333Z,17.73
2018-07-11T23:56:52.998Z,13.83
2018-07-11T23:59:20.284Z,17.63
